sensor_id;sensor_type;location;lat;lon;timestamp;pressure;altitude;pressure_sealevel;temperature;humidity
33913;BME280;20200;52.084;5.224;2023-05-01T00:00:36;154669.0;;;23.42;31.45
33913;BME280;20200;52.084;5.224;2023-05-01T00:02:13;154597.0;;;23.14;31.78
33913;BME280;20200;52.084;5.224;2023-05-01T00:05:26;154597.0;;;23.14;31.82
33913;BME280;20200;52.084;5.224;2023-05-01T00:07:02;154645.0;;;23.33;31.68
33913;BME280;20200;52.084;5.224;2023-05-01T00:08:39;154628.0;;;23.26;31.64
33913;BME280;20200;52.084;5.224;2023-05-01T00:11:51;154648.0;;;23.34;31.4
33913;BME280;20200;52.084;5.224;2023-05-01T00:13:28;154633.0;;;23.28;31.71
33913;BME280;20200;52.084;5.224;2023-05-01T00:15:06;154723.0;;;23.64;31.23
33913;BME280;20200;52.084;5.224;2023-05-01T00:16:43;154701.0;;;23.55;31.25
33913;BME280;20200;52.084;5.224;2023-05-01T00:19:57;154599.0;;;23.15;32.01
33913;BME280;20200;52.084;5.224;2023-05-01T00:21:33;154619.0;;;23.23;31.78
33913;BME280;20200;52.084;5.224;2023-05-01T00:23:09;154709.0;;;23.58;30.89
33913;BME280;20200;52.084;5.224;2023-05-01T00:26:23;154635.0;;;23.29;31.53
33913;BME280;20200;52.084;5.224;2023-05-01T00:27:59;154687.0;;;23.5;31.21
33913;BME280;20200;52.084;5.224;2023-05-01T00:29:35;154596.0;;;23.13;31.39
33913;BME280;20200;52.084;5.224;2023-05-01T00:31:12;154624.0;;;23.25;31.48
33913;BME280;20200;52.084;5.224;2023-05-01T00:34:25;154651.0;;;23.36;31.17
33913;BME280;20200;52.084;5.224;2023-05-01T00:36:02;154677.0;;;23.46;31.1
33913;BME280;20200;52.084;5.224;2023-05-01T00:37:39;154681.0;;;23.47;31.1
33913;BME280;20200;52.084;5.224;2023-05-01T00:40:51;154682.0;;;23.48;30.93
33913;BME280;20200;52.084;5.224;2023-05-01T00:42:33;154677.0;;;23.46;30.93
33913;BME280;20200;52.084;5.224;2023-05-01T00:44:09;154525.0;;;22.85;32.01
33913;BME280;20200;52.084;5.224;2023-05-01T00:47:21;154494.0;;;22.73;32.3
33913;BME280;20200;52.084;5.224;2023-05-01T00:48:59;154540.0;;;22.92;32.1
33913;BME280;20200;52.084;5.224;2023-05-01T00:50:35;154553.0;;;22.97;31.76
33913;BME280;20200;52.084;5.224;2023-05-01T00:52:12;154638.0;;;23.3;31.2
33913;BME280;20200;52.084;5.224;2023-05-01T00:55:27;154580.0;;;23.07;31.4
33913;BME280;20200;52.084;5.224;2023-05-01T00:57:04;154505.0;;;22.78;31.57
33913;BME280;20200;52.084;5.224;2023-05-01T00:58:41;154596.0;;;23.13;31.3
33913;BME280;20200;52.084;5.224;2023-05-01T01:01:56;154585.0;;;23.09;31.31
33913;BME280;20200;52.084;5.224;2023-05-01T01:03:33;154567.0;;;23.02;31.3
33913;BME280;20200;52.084;5.224;2023-05-01T01:05:10;154533.0;;;22.89;31.44
33913;BME280;20200;52.084;5.224;2023-05-01T01:06:51;154509.0;;;22.79;31.44
33913;BME280;20200;52.084;5.224;2023-05-01T01:10:21;154471.0;;;22.64;31.81
33913;BME280;20200;52.084;5.224;2023-05-01T01:12:07;154457.0;;;22.59;31.94
33913;BME280;20200;52.084;5.224;2023-05-01T01:13:57;154533.0;;;22.89;31.52
33913;BME280;20200;52.084;5.224;2023-05-01T01:15:40;154440.0;;;22.52;32.14
33913;BME280;20200;52.084;5.224;2023-05-01T01:17:26;154414.0;;;22.42;32.37
33913;BME280;20200;52.084;5.224;2023-05-01T01:21:07;154429.0;;;22.48;32.24
33913;BME280;20200;52.084;5.224;2023-05-01T01:22:52;154499.0;;;22.75;31.78
33913;BME280;20200;52.084;5.224;2023-05-01T01:24:47;154490.0;;;22.72;32.07
33913;BME280;20200;52.084;5.224;2023-05-01T01:26:50;154545.0;;;22.94;31.62
33913;BME280;20200;52.084;5.224;2023-05-01T01:29:50;154468.0;;;22.63;32.06
33913;BME280;20200;52.084;5.224;2023-05-01T01:31:33;154476.0;;;22.66;32.17
33913;BME280;20200;52.084;5.224;2023-05-01T01:33:24;;;;23.13;
33913;BME280;20200;52.084;5.224;2023-05-01T01:35:25;154612.0;;;23.2;30.91
33913;BME280;20200;52.084;5.224;2023-05-01T01:37:07;154475.0;;;22.66;31.91
33913;BME280;20200;52.084;5.224;2023-05-01T01:38:52;154619.0;;;23.23;31.13
33913;BME280;20200;52.084;5.224;2023-05-01T01:40:44;154593.0;;;23.12;31.21
33913;BME280;20200;52.084;5.224;2023-05-01T01:42:30;154648.0;;;23.34;30.99
33913;BME280;20200;52.084;5.224;2023-05-01T01:46:05;154550.0;;;22.95;31.4
33913;BME280;20200;52.084;5.224;2023-05-01T01:47:43;154568.0;;;23.03;31.6
33913;BME280;20200;52.084;5.224;2023-05-01T01:49:23;154585.0;;;23.09;31.45
33913;BME280;20200;52.084;5.224;2023-05-01T01:51:05;154558.0;;;22.99;31.66
33913;BME280;20200;52.084;5.224;2023-05-01T01:54:28;154555.0;;;22.97;31.51
33913;BME280;20200;52.084;5.224;2023-05-01T01:56:07;154576.0;;;23.06;31.32
33913;BME280;20200;52.084;5.224;2023-05-01T01:57:45;154617.0;;;23.22;31.14
33913;BME280;20200;52.084;5.224;2023-05-01T01:59:23;154541.0;;;22.92;31.46
33913;BME280;20200;52.084;5.224;2023-05-01T02:02:39;154535.0;;;22.9;31.65
33913;BME280;20200;52.084;5.224;2023-05-01T02:04:17;154507.0;;;22.79;31.89
33913;BME280;20200;52.084;5.224;2023-05-01T02:05:55;154497.0;;;22.75;31.96
33913;BME280;20200;52.084;5.224;2023-05-01T02:07:34;154599.0;;;23.15;31.41
33913;BME280;20200;52.084;5.224;2023-05-01T02:10:55;154621.0;;;23.23;31.29
33913;BME280;20200;52.084;5.224;2023-05-01T02:12:32;154561.0;;;23.0;31.46
33913;BME280;20200;52.084;5.224;2023-05-01T02:14:09;154671.0;;;23.43;30.96
33913;BME280;20200;52.084;5.224;2023-05-01T02:15:47;154720.0;;;23.63;30.59
33913;BME280;20200;52.084;5.224;2023-05-01T02:19:03;154791.0;;;23.91;30.15
33913;BME280;20200;52.084;5.224;2023-05-01T02:20:41;154681.0;;;23.47;30.7
33913;BME280;20200;52.084;5.224;2023-05-01T02:22:19;154722.0;;;23.64;30.44
33913;BME280;20200;52.084;5.224;2023-05-01T02:25:37;154625.0;;;23.25;31.19
33913;BME280;20200;52.084;5.224;2023-05-01T02:27:18;154690.0;;;23.51;31.09
33913;BME280;20200;52.084;5.224;2023-05-01T02:28:55;154619.0;;;23.23;31.25
33913;BME280;20200;52.084;5.224;2023-05-01T02:30:31;154587.0;;;23.1;31.23
33913;BME280;20200;52.084;5.224;2023-05-01T02:33:44;154599.0;;;23.15;31.33
33913;BME280;20200;52.084;5.224;2023-05-01T02:35:20;154644.0;;;23.33;31.06
33913;BME280;20200;52.084;5.224;2023-05-01T02:36:56;154672.0;;;23.44;30.89
33913;BME280;20200;52.084;5.224;2023-05-01T02:40:10;154659.0;;;23.39;30.7
33913;BME280;20200;52.084;5.224;2023-05-01T02:41:47;154637.0;;;23.3;31.07
33913;BME280;20200;52.084;5.224;2023-05-01T02:43:26;154672.0;;;23.44;30.76
33913;BME280;20200;52.084;5.224;2023-05-01T02:46:46;154699.0;;;23.54;30.61
33913;BME280;20200;52.084;5.224;2023-05-01T02:48:26;154682.0;;;23.48;30.47
33913;BME280;20200;52.084;5.224;2023-05-01T02:50:04;154725.0;;;23.65;30.32
33913;BME280;20200;52.084;5.224;2023-05-01T02:51:42;154654.0;;;23.37;30.72
33913;BME280;20200;52.084;5.224;2023-05-01T02:54:58;154637.0;;;23.3;30.72
33913;BME280;20200;52.084;5.224;2023-05-01T02:56:33;154680.0;;;23.47;30.35
33913;BME280;20200;52.084;5.224;2023-05-01T02:58:14;154570.0;;;23.04;30.83
33913;BME280;20200;52.084;5.224;2023-05-01T02:59:51;154718.0;;;23.62;30.16
33913;BME280;20200;52.084;5.224;2023-05-01T03:03:04;154710.0;;;23.59;29.97
33913;BME280;20200;52.084;5.224;2023-05-01T03:04:40;154717.0;;;23.62;30.0
33913;BME280;20200;52.084;5.224;2023-05-01T03:06:16;154718.0;;;23.62;30.06
33913;BME280;20200;52.084;5.224;2023-05-01T03:09:28;154723.0;;;23.64;30.07
33913;BME280;20200;52.084;5.224;2023-05-01T03:11:05;154700.0;;;23.55;30.22
33913;BME280;20200;52.084;5.224;2023-05-01T03:12:42;154646.0;;;23.34;30.71
33913;BME280;20200;52.084;5.224;2023-05-01T03:15:55;154618.0;;;23.22;30.59
33913;BME280;20200;52.084;5.224;2023-05-01T03:17:31;154605.0;;;23.17;30.79
33913;BME280;20200;52.084;5.224;2023-05-01T03:19:07;154525.0;;;22.85;31.49
33913;BME280;20200;52.084;5.224;2023-05-01T03:20:50;154555.0;;;22.97;31.27
33913;BME280;20200;52.084;5.224;2023-05-01T03:24:05;154592.0;;;23.12;31.12
33913;BME280;20200;52.084;5.224;2023-05-01T03:25:42;154606.0;;;23.18;30.86
33913;BME280;20200;52.084;5.224;2023-05-01T03:27:18;154607.0;;;23.18;30.78
33913;BME280;20200;52.084;5.224;2023-05-01T03:30:32;154712.0;;;23.6;29.95
33913;BME280;20200;52.084;5.224;2023-05-01T03:32:08;154754.0;;;23.76;29.35
33913;BME280;20200;52.084;5.224;2023-05-01T03:33:44;154786.0;;;23.89;29.37
33913;BME280;20200;52.084;5.224;2023-05-01T03:35:20;154726.0;;;23.65;29.76
33913;BME280;20200;52.084;5.224;2023-05-01T03:38:33;154727.0;;;23.65;29.84
33913;BME280;20200;52.084;5.224;2023-05-01T03:40:09;154685.0;;;23.49;30.12
33913;BME280;20200;52.084;5.224;2023-05-01T03:41:46;154778.0;;;23.85;29.64
33913;BME280;20200;52.084;5.224;2023-05-01T03:44:59;154737.0;;;23.69;29.75
33913;BME280;20200;52.084;5.224;2023-05-01T03:46:35;154689.0;;;23.51;30.13
33913;BME280;20200;52.084;5.224;2023-05-01T03:48:11;154760.0;;;23.79;29.5
33913;BME280;20200;52.084;5.224;2023-05-01T03:51:24;154805.0;;;23.96;29.3
33913;BME280;20200;52.084;5.224;2023-05-01T03:53:00;154724.0;;;23.64;29.9
33913;BME280;20200;52.084;5.224;2023-05-01T03:54:36;154697.0;;;23.54;30.14
33913;BME280;20200;52.084;5.224;2023-05-01T03:56:12;154677.0;;;23.46;30.28
33913;BME280;20200;52.084;5.224;2023-05-01T03:59:24;154627.0;;;23.26;30.58
33913;BME280;20200;52.084;5.224;2023-05-01T04:01:00;154691.0;;;23.51;30.16
33913;BME280;20200;52.084;5.224;2023-05-01T04:02:37;154750.0;;;23.75;29.96
33913;BME280;20200;52.084;5.224;2023-05-01T04:09:13;154727.0;;;23.66;30.05
33913;BME280;20200;52.084;5.224;2023-05-01T04:12:25;154703.0;;;23.56;30.16
33913;BME280;20200;52.084;5.224;2023-05-01T04:14:00;154750.0;;;23.75;29.94
33913;BME280;20200;52.084;5.224;2023-05-01T04:15:36;154739.0;;;23.7;29.98
33913;BME280;20200;52.084;5.224;2023-05-01T04:17:13;154751.0;;;23.75;29.94
33913;BME280;20200;52.084;5.224;2023-05-01T04:20:25;154781.0;;;23.87;29.54
33913;BME280;20200;52.084;5.224;2023-05-01T04:22:01;154831.0;;;24.07;29.02
33913;BME280;20200;52.084;5.224;2023-05-01T04:23:37;154760.0;;;23.79;29.09
33913;BME280;20200;52.084;5.224;2023-05-01T04:26:49;154685.0;;;23.49;29.55
33913;BME280;20200;52.084;5.224;2023-05-01T04:28:25;154783.0;;;23.88;28.79
33913;BME280;20200;52.084;5.224;2023-05-01T04:30:02;154801.0;;;23.95;28.78
33913;BME280;20200;52.084;5.224;2023-05-01T04:33:14;154861.0;;;24.18;28.3
33913;BME280;20200;52.084;5.224;2023-05-01T04:34:50;154943.0;;;24.51;27.83
33913;BME280;20200;52.084;5.224;2023-05-01T04:36:26;154850.0;;;24.14;28.44
33913;BME280;20200;52.084;5.224;2023-05-01T04:38:02;154763.0;;;23.8;29.11
33913;BME280;20200;52.084;5.224;2023-05-01T04:41:14;154760.0;;;23.78;29.06
33913;BME280;20200;52.084;5.224;2023-05-01T04:42:51;154906.0;;;24.36;28.53
33913;BME280;20200;52.084;5.224;2023-05-01T04:44:27;154772.0;;;23.83;29.22
33913;BME280;20200;52.084;5.224;2023-05-01T04:47:39;154774.0;;;23.84;29.33
33913;BME280;20200;52.084;5.224;2023-05-01T04:49:15;154846.0;;;24.12;29.23
33913;BME280;20200;52.084;5.224;2023-05-01T04:50:51;155008.0;;;24.76;28.23
33913;BME280;20200;52.084;5.224;2023-05-01T04:54:03;155040.0;;;24.89;27.84
33913;BME280;20200;52.084;5.224;2023-05-01T04:55:40;155085.0;;;25.07;27.57
33913;BME280;20200;52.084;5.224;2023-05-01T04:57:16;155062.0;;;24.98;27.56
33913;BME280;20200;52.084;5.224;2023-05-01T05:00:28;155050.0;;;24.93;27.6
33913;BME280;20200;52.084;5.224;2023-05-01T05:02:04;155079.0;;;25.05;27.31
33913;BME280;20200;52.084;5.224;2023-05-01T05:03:41;154991.0;;;24.7;27.96
33913;BME280;20200;52.084;5.224;2023-05-01T05:05:18;154979.0;;;24.65;28.11
33913;BME280;20200;52.084;5.224;2023-05-01T05:08:31;154935.0;;;24.48;28.34
33913;BME280;20200;52.084;5.224;2023-05-01T05:10:07;154943.0;;;24.51;28.26
33913;BME280;20200;52.084;5.224;2023-05-01T05:11:43;154881.0;;;24.26;28.82
33913;BME280;20200;52.084;5.224;2023-05-01T05:14:55;154870.0;;;24.22;28.66
33913;BME280;20200;52.084;5.224;2023-05-01T05:16:31;154905.0;;;24.36;28.37
33913;BME280;20200;52.084;5.224;2023-05-01T05:18:07;154925.0;;;24.44;28.34
33913;BME280;20200;52.084;5.224;2023-05-01T05:21:19;154866.0;;;24.2;28.78
33913;BME280;20200;52.084;5.224;2023-05-01T05:22:56;154925.0;;;24.44;28.06
33913;BME280;20200;52.084;5.224;2023-05-01T05:24:32;155002.0;;;24.74;27.88
33913;BME280;20200;52.084;5.224;2023-05-01T05:27:44;154955.0;;;24.55;27.68
33913;BME280;20200;52.084;5.224;2023-05-01T05:29:20;155017.0;;;24.8;27.7
33913;BME280;20200;52.084;5.224;2023-05-01T05:30:56;155118.0;;;25.2;27.05
33913;BME280;20200;52.084;5.224;2023-05-01T05:32:33;155101.0;;;25.13;27.01
33913;BME280;20200;52.084;5.224;2023-05-01T05:35:45;154988.0;;;24.69;27.91
33913;BME280;20200;52.084;5.224;2023-05-01T05:37:21;154907.0;;;24.37;28.03
33913;BME280;20200;52.084;5.224;2023-05-01T05:38:58;154968.0;;;24.61;27.71
33913;BME280;20200;52.084;5.224;2023-05-01T05:42:10;154999.0;;;24.73;27.52
33913;BME280;20200;52.084;5.224;2023-05-01T05:43:46;154884.0;;;24.27;28.09
33913;BME280;20200;52.084;5.224;2023-05-01T05:45:22;154808.0;;;23.97;28.51
33913;BME280;20200;52.084;5.224;2023-05-01T05:48:35;154816.0;;;24.0;28.48
33913;BME280;20200;52.084;5.224;2023-05-01T05:50:11;154977.0;;;24.64;27.7
33913;BME280;20200;52.084;5.224;2023-05-01T05:51:47;154978.0;;;24.65;27.8
33913;BME280;20200;52.084;5.224;2023-05-01T05:53:23;154995.0;;;24.71;27.81
33913;BME280;20200;52.084;5.224;2023-05-01T05:56:36;154989.0;;;24.69;27.84
33913;BME280;20200;52.084;5.224;2023-05-01T05:58:13;154991.0;;;24.7;27.53
33913;BME280;20200;52.084;5.224;2023-05-01T05:59:49;154934.0;;;24.47;28.15
33913;BME280;20200;52.084;5.224;2023-05-01T06:03:02;155019.0;;;24.81;27.45
33913;BME280;20200;52.084;5.224;2023-05-01T06:04:38;154962.0;;;24.58;27.72
33913;BME280;20200;52.084;5.224;2023-05-01T06:06:14;154943.0;;;24.51;28.14
33913;BME280;20200;52.084;5.224;2023-05-01T06:09:27;154921.0;;;24.42;28.22
33913;BME280;20200;52.084;5.224;2023-05-01T06:11:03;154972.0;;;24.62;27.97
33913;BME280;20200;52.084;5.224;2023-05-01T06:12:39;154896.0;;;24.32;28.35
33913;BME280;20200;52.084;5.224;2023-05-01T06:15:51;154993.0;;;24.7;27.52
33913;BME280;20200;52.084;5.224;2023-05-01T06:17:27;154989.0;;;24.69;27.63
33913;BME280;20200;52.084;5.224;2023-05-01T06:19:03;154995.0;;;24.71;27.74
33913;BME280;20200;52.084;5.224;2023-05-01T06:20:39;155109.0;;;25.16;27.09
33913;BME280;20200;52.084;5.224;2023-05-01T06:23:51;155022.0;;;24.82;27.2
33913;BME280;20200;52.084;5.224;2023-05-01T06:25:27;155134.0;;;25.26;26.54
33913;BME280;20200;52.084;5.224;2023-05-01T06:27:04;155185.0;;;25.47;26.24
33913;BME280;20200;52.084;5.224;2023-05-01T06:30:16;155070.0;;;25.01;26.91
33913;BME280;20200;52.084;5.224;2023-05-01T06:31:52;155115.0;;;25.19;26.82
33913;BME280;20200;52.084;5.224;2023-05-01T06:33:28;155120.0;;;25.21;27.13
33913;BME280;20200;52.084;5.224;2023-05-01T06:36:41;155120.0;;;25.21;27.48
33913;BME280;20200;52.084;5.224;2023-05-01T06:38:17;155174.0;;;25.42;26.93
33913;BME280;20200;52.084;5.224;2023-05-01T06:39:54;155142.0;;;25.3;27.12
33913;BME280;20200;52.084;5.224;2023-05-01T06:41:30;155172.0;;;25.41;26.99
33913;BME280;20200;52.084;5.224;2023-05-01T06:44:42;155191.0;;;25.49;26.9
33913;BME280;20200;52.084;5.224;2023-05-01T06:46:18;155232.0;;;25.65;26.78
33913;BME280;20200;52.084;5.224;2023-05-01T06:47:54;155287.0;;;25.87;26.38
33913;BME280;20200;52.084;5.224;2023-05-01T06:51:06;155270.0;;;25.8;26.48
33913;BME280;20200;52.084;5.224;2023-05-01T06:52:43;155271.0;;;25.8;26.54
33913;BME280;20200;52.084;5.224;2023-05-01T06:54:19;155340.0;;;26.07;26.27
33913;BME280;20200;52.084;5.224;2023-05-01T06:57:31;155242.0;;;25.69;26.73
33913;BME280;20200;52.084;5.224;2023-05-01T06:59:07;155249.0;;;25.72;26.81
33913;BME280;20200;52.084;5.224;2023-05-01T07:00:44;155324.0;;;26.01;26.38
33913;BME280;20200;52.084;5.224;2023-05-01T07:03:56;155420.0;;;26.39;26.24
33913;BME280;20200;52.084;5.224;2023-05-01T07:05:33;155317.0;;;25.98;26.74
33913;BME280;20200;52.084;5.224;2023-05-01T07:07:09;155266.0;;;25.78;27.03
33913;BME280;20200;52.084;5.224;2023-05-01T07:08:45;155300.0;;;25.92;26.79
33913;BME280;20200;52.084;5.224;2023-05-01T07:11:57;155260.0;;;25.76;27.22
33913;BME280;20200;52.084;5.224;2023-05-01T07:13:33;155267.0;;;25.79;27.14
33913;BME280;20200;52.084;5.224;2023-05-01T07:15:10;155318.0;;;25.99;26.87
33913;BME280;20200;52.084;5.224;2023-05-01T07:18:21;155361.0;;;26.16;26.56
33913;BME280;20200;52.084;5.224;2023-05-01T07:19:58;155218.0;;;25.6;27.13
33913;BME280;20200;52.084;5.224;2023-05-01T07:21:34;155245.0;;;25.7;27.04
33913;BME280;20200;52.084;5.224;2023-05-01T07:24:46;155225.0;;;25.62;26.97
33913;BME280;20200;52.084;5.224;2023-05-01T07:26:24;155222.0;;;25.61;27.26
33913;BME280;20200;52.084;5.224;2023-05-01T07:28:01;155340.0;;;26.07;26.74
33913;BME280;20200;52.084;5.224;2023-05-01T07:29:37;155283.0;;;25.85;27.14
33913;BME280;20200;52.084;5.224;2023-05-01T07:32:50;155322.0;;;26.01;26.92
33913;BME280;20200;52.084;5.224;2023-05-01T07:34:26;155273.0;;;25.81;27.52
33913;BME280;20200;52.084;5.224;2023-05-01T07:36:02;155232.0;;;25.65;27.56
33913;BME280;20200;52.084;5.224;2023-05-01T07:39:15;155308.0;;;25.95;27.11
33913;BME280;20200;52.084;5.224;2023-05-01T07:40:51;155152.0;;;25.33;27.27
33913;BME280;20200;52.084;5.224;2023-05-01T07:42:28;155160.0;;;25.37;27.09
33913;BME280;20200;52.084;5.224;2023-05-01T07:45:40;155146.0;;;25.31;27.43
33913;BME280;20200;52.084;5.224;2023-05-01T07:47:16;155162.0;;;25.37;27.51
33913;BME280;20200;52.084;5.224;2023-05-01T07:48:52;155184.0;;;25.46;27.4
33913;BME280;20200;52.084;5.224;2023-05-01T07:52:05;155140.0;;;25.29;27.42
33913;BME280;20200;52.084;5.224;2023-05-01T07:53:41;155153.0;;;25.34;27.85
33913;BME280;20200;52.084;5.224;2023-05-01T07:55:20;155222.0;;;25.61;27.64
33913;BME280;20200;52.084;5.224;2023-05-01T07:56:56;155299.0;;;25.91;27.63
33913;BME280;20200;52.084;5.224;2023-05-01T08:00:11;155342.0;;;26.08;27.53
33913;BME280;20200;52.084;5.224;2023-05-01T08:01:47;155318.0;;;25.99;27.36
33913;BME280;20200;52.084;5.224;2023-05-01T08:03:23;155285.0;;;25.86;27.25
33913;BME280;20200;52.084;5.224;2023-05-01T08:06:35;155243.0;;;25.69;26.97
33913;BME280;20200;52.084;5.224;2023-05-01T08:08:11;155281.0;;;25.84;26.95
33913;BME280;20200;52.084;5.224;2023-05-01T08:09:47;155314.0;;;25.97;26.57
33913;BME280;20200;52.084;5.224;2023-05-01T08:13:01;155393.0;;;26.28;26.01
33913;BME280;20200;52.084;5.224;2023-05-01T08:14:37;155429.0;;;26.43;26.47
33913;BME280;20200;52.084;5.224;2023-05-01T08:16:13;155220.0;;;25.6;27.61
33913;BME280;20200;52.084;5.224;2023-05-01T08:17:49;155197.0;;;25.51;27.91
33913;BME280;20200;52.084;5.224;2023-05-01T08:21:01;155194.0;;;25.5;28.58
33913;BME280;20200;52.084;5.224;2023-05-01T08:22:37;155204.0;;;25.54;28.4
33913;BME280;20200;52.084;5.224;2023-05-01T08:24:14;155176.0;;;25.43;28.77
33913;BME280;20200;52.084;5.224;2023-05-01T08:27:27;155148.0;;;25.32;28.91
33913;BME280;20200;52.084;5.224;2023-05-01T08:29:03;155140.0;;;25.29;28.67
33913;BME280;20200;52.084;5.224;2023-05-01T08:30:39;155219.0;;;25.6;28.49
33913;BME280;20200;52.084;5.224;2023-05-01T08:33:53;155260.0;;;25.76;28.46
33913;BME280;20200;52.084;5.224;2023-05-01T08:35:29;155227.0;;;25.63;28.49
33913;BME280;20200;52.084;5.224;2023-05-01T08:37:06;155262.0;;;25.77;28.23
33913;BME280;20200;52.084;5.224;2023-05-01T08:38:42;155378.0;;;26.23;27.53
33913;BME280;20200;52.084;5.224;2023-05-01T08:41:54;155517.0;;;26.77;26.38
33913;BME280;20200;52.084;5.224;2023-05-01T08:43:30;155543.0;;;26.88;26.13
33913;BME280;20200;52.084;5.224;2023-05-01T08:45:08;155525.0;;;26.81;26.03
33913;BME280;20200;52.084;5.224;2023-05-01T08:48:24;155504.0;;;26.72;26.46
33913;BME280;20200;52.084;5.224;2023-05-01T08:50:02;155470.0;;;26.59;27.31
33913;BME280;20200;52.084;5.224;2023-05-01T08:51:40;155501.0;;;26.71;26.62
33913;BME280;20200;52.084;5.224;2023-05-01T08:53:17;155521.0;;;26.79;26.99
33913;BME280;20200;52.084;5.224;2023-05-01T08:56:35;155645.0;;;27.28;26.46
33913;BME280;20200;52.084;5.224;2023-05-01T08:59:54;155755.0;;;27.71;25.76
33913;BME280;20200;52.084;5.224;2023-05-01T09:03:10;155777.0;;;27.8;25.66
33913;BME280;20200;52.084;5.224;2023-05-01T09:04:47;155806.0;;;27.91;25.02
33913;BME280;20200;52.084;5.224;2023-05-01T09:06:27;155839.0;;;28.05;24.61
33913;BME280;20200;52.084;5.224;2023-05-01T09:08:05;155747.0;;;27.68;24.94
33913;BME280;20200;52.084;5.224;2023-05-01T09:11:19;155798.0;;;27.88;24.8
33913;BME280;20200;52.084;5.224;2023-05-01T09:12:59;155714.0;;;27.55;25.41
33913;BME280;20200;52.084;5.224;2023-05-01T09:14:36;155650.0;;;27.3;25.41
33913;BME280;20200;52.084;5.224;2023-05-01T09:17:50;155775.0;;;27.79;24.83
33913;BME280;20200;52.084;5.224;2023-05-01T09:19:26;155789.0;;;27.84;24.68
33913;BME280;20200;52.084;5.224;2023-05-01T09:21:02;155748.0;;;27.68;24.96
33913;BME280;20200;52.084;5.224;2023-05-01T09:22:39;155857.0;;;28.11;24.55
33913;BME280;20200;52.084;5.224;2023-05-01T09:25:52;155897.0;;;28.27;24.57
33913;BME280;20200;52.084;5.224;2023-05-01T09:27:32;155955.0;;;28.5;24.18
33913;BME280;20200;52.084;5.224;2023-05-01T09:29:09;155961.0;;;28.52;24.02
33913;BME280;20200;52.084;5.224;2023-05-01T09:32:22;155955.0;;;28.5;24.19
33913;BME280;20200;52.084;5.224;2023-05-01T09:34:01;155998.0;;;28.67;23.91
33913;BME280;20200;52.084;5.224;2023-05-01T09:35:49;155941.0;;;28.45;23.98
33913;BME280;20200;52.084;5.224;2023-05-01T09:37:33;156007.0;;;28.71;24.12
33913;BME280;20200;52.084;5.224;2023-05-01T09:41:03;156124.0;;;29.17;23.59
33913;BME280;20200;52.084;5.224;2023-05-01T09:42:48;156075.0;;;28.97;24.28
33913;BME280;20200;52.084;5.224;2023-05-01T09:44:24;156111.0;;;29.11;24.12
33913;BME280;20200;52.084;5.224;2023-05-01T09:46:02;156120.0;;;29.15;23.61
33913;BME280;20200;52.084;5.224;2023-05-01T09:49:16;156041.0;;;28.84;23.54
33913;BME280;20200;52.084;5.224;2023-05-01T09:50:52;156213.0;;;29.52;22.82
33913;BME280;20200;52.084;5.224;2023-05-01T09:52:28;156162.0;;;29.32;23.29
33913;BME280;20200;52.084;5.224;2023-05-01T09:54:16;156089.0;;;29.03;23.79
33913;BME280;20200;52.084;5.224;2023-05-01T09:57:35;156112.0;;;29.12;24.09
33913;BME280;20200;52.084;5.224;2023-05-01T09:59:15;156252.0;;;29.67;22.97
33913;BME280;20200;52.084;5.224;2023-05-01T10:00:52;156234.0;;;29.6;22.0
33913;BME280;20200;52.084;5.224;2023-05-01T10:02:29;156126.0;;;29.17;21.71
33913;BME280;20200;52.084;5.224;2023-05-01T10:05:43;156454.0;;;30.47;20.37
33913;BME280;20200;52.084;5.224;2023-05-01T10:07:19;156462.0;;;30.5;21.28
33913;BME280;20200;52.084;5.224;2023-05-01T10:08:55;156220.0;;;29.54;22.0
33913;BME280;20200;52.084;5.224;2023-05-01T10:12:07;156246.0;;;29.65;21.8
33913;BME280;20200;52.084;5.224;2023-05-01T10:13:44;156394.0;;;30.23;20.77
33913;BME280;20200;52.084;5.224;2023-05-01T10:15:20;156468.0;;;30.52;20.18
33913;BME280;20200;52.084;5.224;2023-05-01T10:18:33;156472.0;;;30.54;20.36
33913;BME280;20200;52.084;5.224;2023-05-01T10:20:10;156449.0;;;30.45;19.87
33913;BME280;20200;52.084;5.224;2023-05-01T10:21:47;156415.0;;;30.31;20.45
33913;BME280;20200;52.084;5.224;2023-05-01T10:23:24;156286.0;;;29.8;20.79
33913;BME280;20200;52.084;5.224;2023-05-01T10:26:42;156031.0;;;28.8;21.49
33913;BME280;20200;52.084;5.224;2023-05-01T10:28:19;155938.0;;;28.43;21.81
33913;BME280;20200;52.084;5.224;2023-05-01T10:29:56;155952.0;;;28.49;21.89
33913;BME280;20200;52.084;5.224;2023-05-01T10:33:11;156154.0;;;29.29;20.92
33913;BME280;20200;52.084;5.224;2023-05-01T10:34:51;155933.0;;;28.42;22.99
33913;BME280;20200;52.084;5.224;2023-05-01T10:36:36;155812.0;;;27.94;24.17
33913;BME280;20200;52.084;5.224;2023-05-01T10:38:21;155972.0;;;28.57;24.06
33913;BME280;20200;52.084;5.224;2023-05-01T10:39:58;155815.0;;;27.95;24.65
33913;BME280;20200;52.084;5.224;2023-05-01T10:43:44;155589.0;;;27.06;25.66
33913;BME280;20200;52.084;5.224;2023-05-01T10:45:28;155616.0;;;27.16;25.4
33913;BME280;20200;52.084;5.224;2023-05-01T10:48:10;155572.0;;;26.99;25.61
33913;BME280;20200;52.084;5.224;2023-05-01T10:50:02;155729.0;;;27.61;24.79
33913;BME280;20200;52.084;5.224;2023-05-01T10:51:57;155693.0;;;27.47;24.91
33913;BME280;20200;52.084;5.224;2023-05-01T10:53:34;155854.0;;;28.1;24.28
33913;BME280;20200;52.084;5.224;2023-05-01T10:55:31;155621.0;;;27.19;25.17
33913;BME280;20200;52.084;5.224;2023-05-01T10:57:40;155723.0;;;27.59;25.0
33913;BME280;20200;52.084;5.224;2023-05-01T10:59:17;155709.0;;;27.53;25.06
33913;BME280;20200;52.084;5.224;2023-05-01T11:01:26;155709.0;;;27.53;24.91
33913;BME280;20200;52.084;5.224;2023-05-01T11:03:36;155650.0;;;27.3;24.78
33913;BME280;20200;52.084;5.224;2023-05-01T11:05:12;155659.0;;;27.33;25.05
33913;BME280;20200;52.084;5.224;2023-05-01T11:08:50;155523.0;;;26.8;25.87
33913;BME280;20200;52.084;5.224;2023-05-01T11:10:26;155672.0;;;27.39;25.25
33913;BME280;20200;52.084;5.224;2023-05-01T11:12:02;155871.0;;;28.17;24.47